Terminal Aerodrome Forecast
Issued by NWS

Home | Current Version | Previous Version | Text Only | Print | Product List | Glossary On
Versions: 1 2 3 4 5 6 7 8 9 10 11 12 13 14 15
578
FTAK31 PAJN 231137
TAFAKT
TAF
PAKT 231137Z 2312/2412 14012G20KT 6SM -RA BR OVC007
     FM231700 13018G28KT 2SM RA BR SCT004 BKN006 OVC010
      WS020/16040KT
     FM240200 14012G20KT 5SM -RA BR SCT008 BKN015 OVC020
     FM240700 14008KT P6SM -SHRA BKN007 OVC012
      AMD LTD TO CLD VIS AND WIND TIL 231500=

USA.gov is the U.S. government's official web portal to all federal, state and local government web resources and services.